sensor_id;sensor_type;location;lat;lon;timestamp;pressure;altitude;pressure_sealevel;temperature;humidity
42705;BME280;28342;42.594;23.414;2023-02-18T00:01:54;95181.94;;;2.13;70.14
42705;BME280;28342;42.594;23.414;2023-02-18T00:04:23;95224.16;;;2.33;70.48
42705;BME280;28342;42.594;23.414;2023-02-18T00:07:10;95221.69;;;2.43;70.07
42705;BME280;28342;42.594;23.414;2023-02-18T00:09:38;95192.25;;;2.02;71.12
42705;BME280;28342;42.594;23.414;2023-02-18T00:15:15;95212.09;;;2.32;70.82
42705;BME280;28342;42.594;23.414;2023-02-18T00:17:50;95179.56;;;2.11;70.80
42705;BME280;28342;42.594;23.414;2023-02-18T00:20:16;95204.88;;;2.39;70.57
42705;BME280;28342;42.594;23.414;2023-02-18T00:22:44;95182.81;;;2.18;70.09
42705;BME280;28342;42.594;23.414;2023-02-18T00:25:34;95164.50;;;2.01;70.81
42705;BME280;28342;42.594;23.414;2023-02-18T00:28:00;95165.44;;;1.95;71.17
42705;BME280;28342;42.594;23.414;2023-02-18T00:30:30;95168.16;;;2.00;71.31
42705;BME280;28342;42.594;23.414;2023-02-18T00:32:56;95174.50;;;2.04;71.72
42705;BME280;28342;42.594;23.414;2023-02-18T00:35:38;95146.56;;;2.10;71.15
42705;BME280;28342;42.594;23.414;2023-02-18T00:38:04;95152.28;;;2.24;70.62
42705;BME280;28342;42.594;23.414;2023-02-18T00:40:30;95141.50;;;2.20;70.66
42705;BME280;28342;42.594;23.414;2023-02-18T00:43:01;95141.31;;;2.27;70.68
42705;BME280;28342;42.594;23.414;2023-02-18T00:45:27;95144.09;;;2.37;70.12
42705;BME280;28342;42.594;23.414;2023-02-18T00:47:55;95149.75;;;2.46;69.94
42705;BME280;28342;42.594;23.414;2023-02-18T00:50:47;95144.31;;;2.52;69.68
42705;BME280;28342;42.594;23.414;2023-02-18T00:53:12;95151.97;;;2.37;70.17
42705;BME280;28342;42.594;23.414;2023-02-18T00:55:45;95134.81;;;2.13;70.66
42705;BME280;28342;42.594;23.414;2023-02-18T00:58:12;95149.50;;;2.30;70.38
42705;BME280;28342;42.594;23.414;2023-02-18T01:00:39;95112.38;;;1.83;70.82
42705;BME280;28342;42.594;23.414;2023-02-18T01:03:24;95123.88;;;1.82;71.36
42705;BME280;28342;42.594;23.414;2023-02-18T01:05:51;95137.31;;;2.02;70.81
42705;BME280;28342;42.594;23.414;2023-02-18T01:08:18;95155.94;;;2.23;70.57
42705;BME280;28342;42.594;23.414;2023-02-18T01:10:58;95139.56;;;1.99;70.29
42705;BME280;28342;42.594;23.414;2023-02-18T01:13:25;95159.72;;;1.98;70.73
42705;BME280;28342;42.594;23.414;2023-02-18T01:15:52;95124.19;;;1.69;71.02
42705;BME280;28342;42.594;23.414;2023-02-18T01:18:34;95159.00;;;1.86;71.61
42705;BME280;28342;42.594;23.414;2023-02-18T01:21:27;95122.00;;;1.49;71.59
42705;BME280;28342;42.594;23.414;2023-02-18T01:23:53;95161.28;;;1.83;71.79
42705;BME280;28342;42.594;23.414;2023-02-18T01:26:19;95150.28;;;1.52;72.79
42705;BME280;28342;42.594;23.414;2023-02-18T01:28:46;95151.28;;;1.63;72.63
42705;BME280;28342;42.594;23.414;2023-02-18T01:31:24;95130.84;;;1.31;73.42
42705;BME280;28342;42.594;23.414;2023-02-18T01:34:08;95145.78;;;1.47;73.30
42705;BME280;28342;42.594;23.414;2023-02-18T01:36:34;95169.66;;;1.68;72.91
42705;BME280;28342;42.594;23.414;2023-02-18T01:39:02;95129.22;;;1.42;73.24
42705;BME280;28342;42.594;23.414;2023-02-18T01:41:30;95127.88;;;1.39;72.95
42705;BME280;28342;42.594;23.414;2023-02-18T01:44:16;95166.34;;;1.72;72.55
42705;BME280;28342;42.594;23.414;2023-02-18T01:46:54;95157.63;;;1.67;72.57
42705;BME280;28342;42.594;23.414;2023-02-18T01:49:35;95142.13;;;1.48;72.90
42705;BME280;28342;42.594;23.414;2023-02-18T01:52:18;95163.78;;;1.61;73.13
42705;BME280;28342;42.594;23.414;2023-02-18T01:55:14;95182.00;;;1.56;73.26
42705;BME280;28342;42.594;23.414;2023-02-18T01:57:57;95176.78;;;1.56;73.14
42705;BME280;28342;42.594;23.414;2023-02-18T02:00:33;95140.94;;;1.39;73.13
42705;BME280;28342;42.594;23.414;2023-02-18T02:03:02;95175.47;;;1.41;74.09
42705;BME280;28342;42.594;23.414;2023-02-18T02:05:34;95153.47;;;1.26;74.40
42705;BME280;28342;42.594;23.414;2023-02-18T02:08:01;95176.06;;;1.32;74.33
42705;BME280;28342;42.594;23.414;2023-02-18T02:10:41;95160.06;;;1.28;73.69
42705;BME280;28342;42.594;23.414;2023-02-18T02:13:22;95177.06;;;1.42;73.49
42705;BME280;28342;42.594;23.414;2023-02-18T02:16:20;95157.97;;;1.02;75.06
42705;BME280;28342;42.594;23.414;2023-02-18T02:22:04;95165.09;;;1.18;74.92
42705;BME280;28342;42.594;23.414;2023-02-18T02:25:16;95169.28;;;1.19;74.71
42705;BME280;28342;42.594;23.414;2023-02-18T02:36:48;95167.84;;;1.00;76.15
42705;BME280;28342;42.594;23.414;2023-02-18T02:49:12;95148.72;;;0.82;76.89
42705;BME280;28342;42.594;23.414;2023-02-18T02:52:06;95138.25;;;0.82;76.79
42705;BME280;28342;42.594;23.414;2023-02-18T02:54:43;95098.69;;;0.62;76.81
42705;BME280;28342;42.594;23.414;2023-02-18T03:00:09;95135.19;;;0.85;76.72
42705;BME280;28342;42.594;23.414;2023-02-18T03:12:19;95107.66;;;0.54;77.43
42705;BME280;28342;42.594;23.414;2023-02-18T03:15:27;95114.34;;;0.62;77.32
42705;BME280;28342;42.594;23.414;2023-02-18T03:18:22;95137.63;;;0.64;77.46
42705;BME280;28342;42.594;23.414;2023-02-18T03:21:22;95101.84;;;0.64;76.77
42705;BME280;28342;42.594;23.414;2023-02-18T03:24:43;95126.47;;;0.68;77.08
42705;BME280;28342;42.594;23.414;2023-02-18T03:27:40;95152.91;;;0.72;78.29
42705;BME280;28342;42.594;23.414;2023-02-18T03:31:01;95108.91;;;0.52;78.15
42705;BME280;28342;42.594;23.414;2023-02-18T03:33:28;95147.81;;;0.65;78.47
42705;BME280;28342;42.594;23.414;2023-02-18T03:35:57;95133.75;;;0.54;78.38
42705;BME280;28342;42.594;23.414;2023-02-18T03:38:39;95162.69;;;0.65;77.91
42705;BME280;28342;42.594;23.414;2023-02-18T03:41:17;95158.81;;;0.67;77.23
42705;BME280;28342;42.594;23.414;2023-02-18T03:44:00;95186.94;;;0.88;77.56
42705;BME280;28342;42.594;23.414;2023-02-18T03:46:47;95185.81;;;0.84;77.18
42705;BME280;28342;42.594;23.414;2023-02-18T03:49:22;95182.66;;;0.82;76.83
42705;BME280;28342;42.594;23.414;2023-02-18T03:52:07;95190.13;;;0.90;76.44
42705;BME280;28342;42.594;23.414;2023-02-18T03:54:34;95202.84;;;0.75;77.11
42705;BME280;28342;42.594;23.414;2023-02-18T03:57:06;95191.19;;;0.54;77.90
42705;BME280;28342;42.594;23.414;2023-02-18T03:59:32;95183.22;;;0.61;77.34
42705;BME280;28342;42.594;23.414;2023-02-18T04:02:21;95205.38;;;0.70;77.81
42705;BME280;28342;42.594;23.414;2023-02-18T04:04:52;95184.69;;;0.80;76.14
42705;BME280;28342;42.594;23.414;2023-02-18T04:07:39;95178.81;;;0.62;76.96
42705;BME280;28342;42.594;23.414;2023-02-18T04:10:12;95190.03;;;0.74;76.94
42705;BME280;28342;42.594;23.414;2023-02-18T04:13:00;95198.44;;;0.76;77.85
42705;BME280;28342;42.594;23.414;2023-02-18T04:15:31;95189.59;;;0.77;77.46
42705;BME280;28342;42.594;23.414;2023-02-18T04:17:58;95187.09;;;0.82;76.64
42705;BME280;28342;42.594;23.414;2023-02-18T04:20:24;95115.16;;;0.39;76.98
42705;BME280;28342;42.594;23.414;2023-02-18T04:22:51;95173.81;;;0.60;78.24
42705;BME280;28342;42.594;23.414;2023-02-18T04:25:26;95172.78;;;0.61;78.30
42705;BME280;28342;42.594;23.414;2023-02-18T04:27:56;95148.38;;;0.44;78.57
42705;BME280;28342;42.594;23.414;2023-02-18T04:30:28;95160.56;;;0.50;78.47
42705;BME280;28342;42.594;23.414;2023-02-18T04:32:55;95159.06;;;0.54;77.87
42705;BME280;28342;42.594;23.414;2023-02-18T04:35:29;95155.09;;;0.51;78.36
42705;BME280;28342;42.594;23.414;2023-02-18T04:38:15;95161.91;;;0.64;78.21
42705;BME280;28342;42.594;23.414;2023-02-18T04:40:46;95128.88;;;0.58;77.85
42705;BME280;28342;42.594;23.414;2023-02-18T04:43:14;95152.25;;;0.53;78.45
42705;BME280;28342;42.594;23.414;2023-02-18T04:45:40;95163.16;;;0.50;79.00
42705;BME280;28342;42.594;23.414;2023-02-18T04:48:07;95139.19;;;0.53;78.34
42705;BME280;28342;42.594;23.414;2023-02-18T04:50:36;95143.63;;;0.64;77.73
42705;BME280;28342;42.594;23.414;2023-02-18T04:53:16;95158.28;;;0.65;78.35
42705;BME280;28342;42.594;23.414;2023-02-18T04:56:04;95140.31;;;0.57;77.58
42705;BME280;28342;42.594;23.414;2023-02-18T04:58:33;95140.66;;;0.60;77.38
42705;BME280;28342;42.594;23.414;2023-02-18T05:01:00;95156.31;;;0.72;77.18
42705;BME280;28342;42.594;23.414;2023-02-18T05:03:37;95151.31;;;0.82;77.07
42705;BME280;28342;42.594;23.414;2023-02-18T05:06:06;95130.81;;;0.63;77.74
42705;BME280;28342;42.594;23.414;2023-02-18T05:08:32;95131.94;;;0.55;77.99
42705;BME280;28342;42.594;23.414;2023-02-18T05:11:09;95154.16;;;0.69;77.69
42705;BME280;28342;42.594;23.414;2023-02-18T05:13:36;95171.97;;;0.72;77.84
42705;BME280;28342;42.594;23.414;2023-02-18T05:16:15;95167.78;;;0.71;77.50
42705;BME280;28342;42.594;23.414;2023-02-18T05:18:41;95165.19;;;0.71;76.94
42705;BME280;28342;42.594;23.414;2023-02-18T05:21:07;95192.31;;;0.82;77.40
42705;BME280;28342;42.594;23.414;2023-02-18T05:24:00;95184.00;;;0.97;77.14
42705;BME280;28342;42.594;23.414;2023-02-18T05:26:51;95154.63;;;0.78;77.15
42705;BME280;28342;42.594;23.414;2023-02-18T05:29:18;95178.09;;;0.89;77.39
42705;BME280;28342;42.594;23.414;2023-02-18T05:31:43;95168.34;;;0.73;77.64
42705;BME280;28342;42.594;23.414;2023-02-18T05:34:10;95180.34;;;0.98;77.39
42705;BME280;28342;42.594;23.414;2023-02-18T05:36:52;95175.94;;;0.98;76.92
42705;BME280;28342;42.594;23.414;2023-02-18T05:39:21;95146.00;;;0.77;76.63
42705;BME280;28342;42.594;23.414;2023-02-18T05:42:12;95133.91;;;0.88;76.59
42705;BME280;28342;42.594;23.414;2023-02-18T05:44:39;95138.50;;;0.81;77.46
42705;BME280;28342;42.594;23.414;2023-02-18T05:47:10;95164.22;;;1.01;76.98
42705;BME280;28342;42.594;23.414;2023-02-18T05:49:39;95156.28;;;0.96;76.62
42705;BME280;28342;42.594;23.414;2023-02-18T05:52:06;95175.38;;;0.84;77.22
42705;BME280;28342;42.594;23.414;2023-02-18T05:54:46;95144.50;;;0.70;77.46
42705;BME280;28342;42.594;23.414;2023-02-18T05:57:19;95172.28;;;0.99;77.57
42705;BME280;28342;42.594;23.414;2023-02-18T05:59:45;95171.97;;;0.96;77.41
42705;BME280;28342;42.594;23.414;2023-02-18T06:02:16;95168.41;;;1.13;76.76
42705;BME280;28342;42.594;23.414;2023-02-18T06:04:43;95167.38;;;1.03;77.87
42705;BME280;28342;42.594;23.414;2023-02-18T06:07:28;95190.09;;;1.02;77.99
42705;BME280;28342;42.594;23.414;2023-02-18T06:09:54;95179.09;;;1.12;77.54
42705;BME280;28342;42.594;23.414;2023-02-18T06:12:19;95175.28;;;1.19;77.33
42705;BME280;28342;42.594;23.414;2023-02-18T06:14:46;95176.66;;;1.22;78.07
42705;BME280;28342;42.594;23.414;2023-02-18T06:17:32;95187.03;;;1.45;76.69
42705;BME280;28342;42.594;23.414;2023-02-18T06:19:57;95196.56;;;1.52;76.93
42705;BME280;28342;42.594;23.414;2023-02-18T06:22:23;95147.75;;;1.40;76.95
42705;BME280;28342;42.594;23.414;2023-02-18T06:25:09;95187.59;;;1.47;76.68
42705;BME280;28342;42.594;23.414;2023-02-18T06:27:36;95148.19;;;1.37;76.31
42705;BME280;28342;42.594;23.414;2023-02-18T06:30:01;95188.59;;;1.87;75.31
42705;BME280;28342;42.594;23.414;2023-02-18T06:32:35;95180.31;;;1.78;76.29
42705;BME280;28342;42.594;23.414;2023-02-18T06:35:01;95191.88;;;1.82;76.58
42705;BME280;28342;42.594;23.414;2023-02-18T06:37:26;95163.34;;;1.80;75.09
42705;BME280;28342;42.594;23.414;2023-02-18T06:39:52;95183.69;;;2.07;74.47
42705;BME280;28342;42.594;23.414;2023-02-18T06:42:29;95195.13;;;2.18;75.15
42705;BME280;28342;42.594;23.414;2023-02-18T06:44:54;95174.00;;;2.07;75.34
42705;BME280;28342;42.594;23.414;2023-02-18T06:47:29;95141.97;;;2.00;74.33
42705;BME280;28342;42.594;23.414;2023-02-18T06:49:57;95170.13;;;2.27;75.28
42705;BME280;28342;42.594;23.414;2023-02-18T06:52:51;95160.78;;;2.31;74.78
42705;BME280;28342;42.594;23.414;2023-02-18T06:55:18;95168.94;;;2.51;72.77
42705;BME280;28342;42.594;23.414;2023-02-18T06:57:44;95152.56;;;2.44;73.31
42705;BME280;28342;42.594;23.414;2023-02-18T07:00:09;95138.94;;;2.42;71.65
42705;BME280;28342;42.594;23.414;2023-02-18T07:02:42;95154.94;;;2.62;71.72
42705;BME280;28342;42.594;23.414;2023-02-18T07:05:07;95159.34;;;2.79;71.17
42705;BME280;28342;42.594;23.414;2023-02-18T07:07:33;95162.09;;;2.89;72.66
42705;BME280;28342;42.594;23.414;2023-02-18T07:09:59;95149.09;;;2.94;72.03
42705;BME280;28342;42.594;23.414;2023-02-18T07:12:26;95156.34;;;3.09;71.91
42705;BME280;28342;42.594;23.414;2023-02-18T07:14:52;95168.47;;;3.15;72.55
42705;BME280;28342;42.594;23.414;2023-02-18T07:17:17;95158.16;;;3.08;71.91
42705;BME280;28342;42.594;23.414;2023-02-18T07:20:12;95151.56;;;3.27;72.51
42705;BME280;28342;42.594;23.414;2023-02-18T07:22:43;95153.28;;;3.39;71.32
42705;BME280;28342;42.594;23.414;2023-02-18T07:25:14;95136.25;;;3.41;71.33
42705;BME280;28342;42.594;23.414;2023-02-18T07:27:41;95159.53;;;3.59;71.38
42705;BME280;28342;42.594;23.414;2023-02-18T07:30:09;95138.81;;;3.63;71.29
42705;BME280;28342;42.594;23.414;2023-02-18T07:32:42;95144.69;;;3.70;69.17
42705;BME280;28342;42.594;23.414;2023-02-18T07:35:10;95154.06;;;3.93;69.05
42705;BME280;28342;42.594;23.414;2023-02-18T07:37:37;95129.16;;;3.96;68.83
42705;BME280;28342;42.594;23.414;2023-02-18T07:40:04;95133.53;;;4.17;68.88
42705;BME280;28342;42.594;23.414;2023-02-18T07:42:32;95142.31;;;4.33;68.74
42705;BME280;28342;42.594;23.414;2023-02-18T07:44:57;95164.25;;;4.54;67.61
42705;BME280;28342;42.594;23.414;2023-02-18T07:47:24;95162.75;;;4.63;66.54
42705;BME280;28342;42.594;23.414;2023-02-18T07:50:01;95163.31;;;4.70;66.48
42705;BME280;28342;42.594;23.414;2023-02-18T07:52:27;95166.09;;;4.90;66.71
42705;BME280;28342;42.594;23.414;2023-02-18T07:54:52;95172.94;;;4.96;66.79
42705;BME280;28342;42.594;23.414;2023-02-18T07:57:18;95161.38;;;5.02;65.72
42705;BME280;28342;42.594;23.414;2023-02-18T07:59:45;95156.19;;;5.07;65.18
42705;BME280;28342;42.594;23.414;2023-02-18T08:02:21;95153.63;;;5.28;64.47
42705;BME280;28342;42.594;23.414;2023-02-18T08:04:47;95172.09;;;5.48;62.84
42705;BME280;28342;42.594;23.414;2023-02-18T08:07:14;95184.25;;;5.64;62.56
42705;BME280;28342;42.594;23.414;2023-02-18T08:09:40;95169.56;;;5.74;62.25
42705;BME280;28342;42.594;23.414;2023-02-18T08:12:13;95188.06;;;6.04;61.64
42705;BME280;28342;42.594;23.414;2023-02-18T08:14:38;95185.44;;;5.99;59.99
42705;BME280;28342;42.594;23.414;2023-02-18T08:17:04;95190.72;;;6.19;60.18
42705;BME280;28342;42.594;23.414;2023-02-18T08:19:30;95181.75;;;6.25;60.02
42705;BME280;28342;42.594;23.414;2023-02-18T08:21:56;95199.16;;;6.52;59.37
42705;BME280;28342;42.594;23.414;2023-02-18T08:24:28;95172.53;;;6.53;57.16
42705;BME280;28342;42.594;23.414;2023-02-18T08:26:54;95158.03;;;6.66;56.78
42705;BME280;28342;42.594;23.414;2023-02-18T08:29:20;95182.25;;;6.99;57.07
42705;BME280;28342;42.594;23.414;2023-02-18T08:31:49;95185.06;;;7.28;55.50
42705;BME280;28342;42.594;23.414;2023-02-18T08:34:21;95170.47;;;7.45;56.34
42705;BME280;28342;42.594;23.414;2023-02-18T08:36:47;95179.91;;;7.62;55.94
42705;BME280;28342;42.594;23.414;2023-02-18T08:39:16;95165.19;;;7.45;55.99
42705;BME280;28342;42.594;23.414;2023-02-18T08:41:42;95160.50;;;7.32;56.94
42705;BME280;28342;42.594;23.414;2023-02-18T08:44:08;95162.84;;;7.44;57.04
42705;BME280;28342;42.594;23.414;2023-02-18T08:46:34;95174.38;;;7.58;56.82
42705;BME280;28342;42.594;23.414;2023-02-18T08:49:00;95159.03;;;7.65;56.20
42705;BME280;28342;42.594;23.414;2023-02-18T08:51:25;95140.03;;;7.63;54.05
42705;BME280;28342;42.594;23.414;2023-02-18T08:53:55;95140.72;;;7.84;53.42
42705;BME280;28342;42.594;23.414;2023-02-18T08:56:26;95138.56;;;7.91;54.83
42705;BME280;28342;42.594;23.414;2023-02-18T08:59:00;95126.69;;;7.89;53.77
42705;BME280;28342;42.594;23.414;2023-02-18T09:01:27;95124.50;;;8.01;53.30
42705;BME280;28342;42.594;23.414;2023-02-18T09:03:58;95139.47;;;8.10;52.03
42705;BME280;28342;42.594;23.414;2023-02-18T09:06:24;95158.41;;;8.23;53.81
42705;BME280;28342;42.594;23.414;2023-02-18T09:08:51;95152.03;;;8.29;53.84
42705;BME280;28342;42.594;23.414;2023-02-18T09:11:21;95143.56;;;8.27;55.64
42705;BME280;28342;42.594;23.414;2023-02-18T09:13:57;95148.75;;;8.47;52.80
42705;BME280;28342;42.594;23.414;2023-02-18T09:16:24;95164.97;;;8.64;52.27
42705;BME280;28342;42.594;23.414;2023-02-18T09:18:51;95168.69;;;8.63;51.30
42705;BME280;28342;42.594;23.414;2023-02-18T09:21:17;95165.72;;;8.70;50.77
42705;BME280;28342;42.594;23.414;2023-02-18T09:23:44;95170.00;;;8.95;51.58
42705;BME280;28342;42.594;23.414;2023-02-18T09:26:15;95154.56;;;9.02;50.75
42705;BME280;28342;42.594;23.414;2023-02-18T09:28:43;95167.13;;;9.15;50.15
42705;BME280;28342;42.594;23.414;2023-02-18T09:31:12;95127.56;;;9.05;50.18
42705;BME280;28342;42.594;23.414;2023-02-18T09:33:42;95171.34;;;9.40;49.16
42705;BME280;28342;42.594;23.414;2023-02-18T09:36:08;95162.44;;;9.55;49.54
42705;BME280;28342;42.594;23.414;2023-02-18T09:38:34;95166.47;;;9.71;47.68
42705;BME280;28342;42.594;23.414;2023-02-18T09:41:03;95154.97;;;9.81;48.41
42705;BME280;28342;42.594;23.414;2023-02-18T09:43:37;95142.72;;;10.04;48.11
42705;BME280;28342;42.594;23.414;2023-02-18T09:48:43;95147.34;;;10.50;45.69
42705;BME280;28342;42.594;23.414;2023-02-18T09:51:12;95153.91;;;10.52;44.28
42705;BME280;28342;42.594;23.414;2023-02-18T09:53:40;95152.97;;;10.62;45.31
42705;BME280;28342;42.594;23.414;2023-02-18T09:56:07;95150.97;;;10.54;43.31
42705;BME280;28342;42.594;23.414;2023-02-18T09:58:35;95137.34;;;10.60;44.92
42705;BME280;28342;42.594;23.414;2023-02-18T10:01:05;95153.25;;;10.93;45.79
42705;BME280;28342;42.594;23.414;2023-02-18T10:03:35;95148.75;;;11.07;44.90
42705;BME280;28342;42.594;23.414;2023-02-18T10:06:08;95139.88;;;11.12;43.83
42705;BME280;28342;42.594;23.414;2023-02-18T10:08:37;95153.28;;;11.20;44.14
42705;BME280;28342;42.594;23.414;2023-02-18T10:11:03;95145.59;;;11.19;43.00
42705;BME280;28342;42.594;23.414;2023-02-18T10:13:32;95132.91;;;11.16;44.92
42705;BME280;28342;42.594;23.414;2023-02-18T10:15:58;95140.28;;;11.19;44.92
42705;BME280;28342;42.594;23.414;2023-02-18T10:18:35;95137.44;;;11.29;44.19
42705;BME280;28342;42.594;23.414;2023-02-18T10:21:06;95134.56;;;11.39;43.08
42705;BME280;28342;42.594;23.414;2023-02-18T10:23:37;95129.63;;;11.46;43.82
42705;BME280;28342;42.594;23.414;2023-02-18T10:26:10;95128.34;;;11.57;41.95
42705;BME280;28342;42.594;23.414;2023-02-18T10:28:38;95120.47;;;11.66;42.98
42705;BME280;28342;42.594;23.414;2023-02-18T10:31:08;95129.63;;;11.87;41.99
42705;BME280;28342;42.594;23.414;2023-02-18T10:47:30;95132.09;;;12.06;39.76
42705;BME280;28342;42.594;23.414;2023-02-18T10:50:39;95119.28;;;12.08;40.28
42705;BME280;28342;42.594;23.414;2023-02-18T10:55:46;95100.63;;;12.00;40.15
42705;BME280;28342;42.594;23.414;2023-02-18T11:01:03;95088.25;;;11.95;39.66
42705;BME280;28342;42.594;23.414;2023-02-18T11:03:43;95064.31;;;11.95;39.69
42705;BME280;28342;42.594;23.414;2023-02-18T11:06:15;95078.53;;;12.13;40.33
42705;BME280;28342;42.594;23.414;2023-02-18T11:08:44;95087.16;;;12.18;40.18
42705;BME280;28342;42.594;23.414;2023-02-18T11:11:33;95077.56;;;12.31;41.72
42705;BME280;28342;42.594;23.414;2023-02-18T11:14:03;95083.41;;;12.19;38.95
42705;BME280;28342;42.594;23.414;2023-02-18T11:16:39;95065.56;;;12.20;39.55
42705;BME280;28342;42.594;23.414;2023-02-18T11:19:41;95051.50;;;12.19;39.02
42705;BME280;28342;42.594;23.414;2023-02-18T11:24:38;95067.16;;;12.43;39.88
42705;BME280;28342;42.594;23.414;2023-02-18T11:27:20;95070.81;;;12.56;39.68
42705;BME280;28342;42.594;23.414;2023-02-18T11:29:50;95050.72;;;12.50;38.69
42705;BME280;28342;42.594;23.414;2023-02-18T11:32:17;95053.09;;;12.51;39.43
42705;BME280;28342;42.594;23.414;2023-02-18T11:34:43;95045.00;;;12.56;39.33
42705;BME280;28342;42.594;23.414;2023-02-18T11:37:12;95037.03;;;12.65;39.56
42705;BME280;28342;42.594;23.414;2023-02-18T11:39:43;95029.03;;;12.65;38.39
42705;BME280;28342;42.594;23.414;2023-02-18T11:42:13;95022.00;;;12.69;38.92
42705;BME280;28342;42.594;23.414;2023-02-18T11:44:58;94997.59;;;12.67;39.04
42705;BME280;28342;42.594;23.414;2023-02-18T11:47:29;95007.03;;;12.82;37.74
42705;BME280;28342;42.594;23.414;2023-02-18T11:52:38;94990.69;;;12.66;37.37
42705;BME280;28342;42.594;23.414;2023-02-18T11:57:42;94983.00;;;12.65;38.05
42705;BME280;28342;42.594;23.414;2023-02-18T12:02:46;94982.59;;;12.80;37.41
42705;BME280;28342;42.594;23.414;2023-02-18T12:05:24;94970.75;;;12.95;38.32
42705;BME280;28342;42.594;23.414;2023-02-18T12:07:57;94975.94;;;13.08;38.38
42705;BME280;28342;42.594;23.414;2023-02-18T12:10:27;94972.69;;;13.20;38.43
42705;BME280;28342;42.594;23.414;2023-02-18T12:13:00;94969.75;;;13.39;38.75
42705;BME280;28342;42.594;23.414;2023-02-18T12:18:42;94947.63;;;13.64;36.62
42705;BME280;28342;42.594;23.414;2023-02-18T12:24:38;94964.50;;;14.12;37.36
42705;BME280;28342;42.594;23.414;2023-02-18T12:35:17;94961.75;;;14.38;36.40
42705;BME280;28342;42.594;23.414;2023-02-18T12:43:36;94924.84;;;14.48;35.35
42705;BME280;28342;42.594;23.414;2023-02-18T12:46:28;94944.91;;;14.54;34.94
42705;BME280;28342;42.594;23.414;2023-02-18T12:57:38;94911.03;;;14.46;35.05
42705;BME280;28342;42.594;23.414;2023-02-18T13:00:22;94913.03;;;14.58;35.42
42705;BME280;28342;42.594;23.414;2023-02-18T13:14:12;94919.63;;;14.90;35.74
42705;BME280;28342;42.594;23.414;2023-02-18T13:16:43;94917.97;;;14.98;35.39
42705;BME280;28342;42.594;23.414;2023-02-18T13:21:47;94893.69;;;14.90;34.21
42705;BME280;28342;42.594;23.414;2023-02-18T13:26:59;94907.91;;;15.03;34.40
42705;BME280;28342;42.594;23.414;2023-02-18T13:34:46;94897.84;;;15.00;35.90
42705;BME280;28342;42.594;23.414;2023-02-18T13:37:45;94914.88;;;15.16;36.39
42705;BME280;28342;42.594;23.414;2023-02-18T13:40:20;94895.91;;;15.09;36.05
42705;BME280;28342;42.594;23.414;2023-02-18T13:42:50;94902.09;;;15.22;36.70
42705;BME280;28342;42.594;23.414;2023-02-18T13:45:28;94903.34;;;15.24;37.68
42705;BME280;28342;42.594;23.414;2023-02-18T13:47:55;94912.72;;;15.31;37.86
42705;BME280;28342;42.594;23.414;2023-02-18T13:56:00;94877.91;;;15.39;36.45
42705;BME280;28342;42.594;23.414;2023-02-18T13:58:48;94890.03;;;15.37;37.04
42705;BME280;28342;42.594;23.414;2023-02-18T14:01:24;94889.91;;;15.33;36.52
42705;BME280;28342;42.594;23.414;2023-02-18T14:03:59;94871.47;;;15.19;38.26
42705;BME280;28342;42.594;23.414;2023-02-18T14:06:31;94883.28;;;15.18;38.30
42705;BME280;28342;42.594;23.414;2023-02-18T14:11:53;94876.81;;;15.19;37.05
42705;BME280;28342;42.594;23.414;2023-02-18T14:17:23;94897.91;;;15.12;36.61
42705;BME280;28342;42.594;23.414;2023-02-18T14:19:55;94888.91;;;14.96;36.92
42705;BME280;28342;42.594;23.414;2023-02-18T14:22:33;94896.16;;;14.95;37.31
42705;BME280;28342;42.594;23.414;2023-02-18T14:27:34;94904.69;;;14.59;36.41
42705;BME280;28342;42.594;23.414;2023-02-18T14:30:07;94892.22;;;14.34;37.20
42705;BME280;28342;42.594;23.414;2023-02-18T14:32:40;94906.03;;;14.36;37.14
42705;BME280;28342;42.594;23.414;2023-02-18T14:35:39;94909.22;;;14.21;37.06
42705;BME280;28342;42.594;23.414;2023-02-18T14:46:32;94929.63;;;14.17;37.92
42705;BME280;28342;42.594;23.414;2023-02-18T14:49:14;94923.38;;;14.13;38.05
42705;BME280;28342;42.594;23.414;2023-02-18T14:51:43;94929.81;;;14.12;38.00
42705;BME280;28342;42.594;23.414;2023-02-18T14:54:15;94898.03;;;13.89;37.44
42705;BME280;28342;42.594;23.414;2023-02-18T14:56:54;94919.66;;;13.96;37.97
42705;BME280;28342;42.594;23.414;2023-02-18T14:59:21;94904.59;;;14.00;38.08
42705;BME280;28342;42.594;23.414;2023-02-18T15:01:48;94903.63;;;14.05;38.54
42705;BME280;28342;42.594;23.414;2023-02-18T15:04:14;94891.56;;;13.99;39.56
42705;BME280;28342;42.594;23.414;2023-02-18T15:06:40;94889.41;;;13.84;38.53
42705;BME280;28342;42.594;23.414;2023-02-18T15:09:16;94904.00;;;13.86;39.03
42705;BME280;28342;42.594;23.414;2023-02-18T15:11:46;94902.88;;;13.87;39.54
42705;BME280;28342;42.594;23.414;2023-02-18T15:14:20;94902.72;;;13.92;39.37
42705;BME280;28342;42.594;23.414;2023-02-18T15:16:48;94900.22;;;13.87;39.55
42705;BME280;28342;42.594;23.414;2023-02-18T15:19:22;94908.25;;;13.79;40.05
42705;BME280;28342;42.594;23.414;2023-02-18T15:21:50;94890.06;;;13.72;40.97
42705;BME280;28342;42.594;23.414;2023-02-18T15:24:36;94894.78;;;13.66;41.53
42705;BME280;28342;42.594;23.414;2023-02-18T15:27:13;94910.00;;;13.66;41.96
42705;BME280;28342;42.594;23.414;2023-02-18T15:29:40;94897.78;;;13.48;42.36
42705;BME280;28342;42.594;23.414;2023-02-18T15:32:24;94890.59;;;13.22;42.99
42705;BME280;28342;42.594;23.414;2023-02-18T15:34:53;94889.81;;;13.22;42.97
42705;BME280;28342;42.594;23.414;2023-02-18T15:37:20;94894.78;;;13.14;43.45
42705;BME280;28342;42.594;23.414;2023-02-18T15:39:46;94889.78;;;13.04;44.34
42705;BME280;28342;42.594;23.414;2023-02-18T15:42:26;94892.88;;;12.98;44.82
42705;BME280;28342;42.594;23.414;2023-02-18T15:45:08;94888.00;;;12.82;44.76
42705;BME280;28342;42.594;23.414;2023-02-18T15:47:45;94878.28;;;12.69;45.30
42705;BME280;28342;42.594;23.414;2023-02-18T15:52:53;94876.16;;;12.32;46.32
42705;BME280;28342;42.594;23.414;2023-02-18T15:55:30;94872.50;;;12.10;46.41